createdAt,value
2023-02-14T00:00:17.537Z,4.10
2023-02-14T00:02:45.811Z,5.17
2023-02-14T00:05:13.981Z,3.90
2023-02-14T00:07:42.165Z,5.50
2023-02-14T00:10:10.901Z,3.55
2023-02-14T00:12:40.396Z,2.40
2023-02-14T00:15:25.550Z,2.40
2023-02-14T00:18:00.783Z,5.20
2023-02-14T00:20:31.292Z,5.15
2023-02-14T00:23:00.899Z,3.10
2023-02-14T00:25:31.234Z,4.78
2023-02-14T00:28:03.277Z,4.43
2023-02-14T00:30:33.929Z,4.70
2023-02-14T00:33:02.180Z,3.00
2023-02-14T00:35:30.418Z,4.70
2023-02-14T00:37:58.634Z,3.30
2023-02-14T00:40:26.993Z,6.57
2023-02-14T00:42:58.495Z,3.55
2023-02-14T00:45:30.591Z,5.35
2023-02-14T00:47:59.257Z,4.27
2023-02-14T00:50:27.422Z,6.70
2023-02-14T00:52:55.589Z,5.10
2023-02-14T00:55:25.582Z,5.53
2023-02-14T00:57:53.721Z,5.20
2023-02-14T01:00:23.180Z,5.43
2023-02-14T01:02:52.829Z,4.07
2023-02-14T01:05:21.023Z,4.82
2023-02-14T01:07:49.179Z,5.57
2023-02-14T01:10:20.522Z,4.28
2023-02-14T01:12:48.662Z,4.10
2023-02-14T01:15:16.907Z,4.00
2023-02-14T01:17:45.541Z,5.32
2023-02-14T01:20:17.690Z,5.97
2023-02-14T01:22:45.947Z,4.72
2023-02-14T01:25:17.102Z,5.72
2023-02-14T01:27:45.441Z,5.03
2023-02-14T01:30:15.921Z,5.97
2023-02-14T01:32:44.761Z,7.07
2023-02-14T01:35:13.091Z,5.22
2023-02-14T01:37:42.789Z,4.63
2023-02-14T01:40:13.501Z,5.70
2023-02-14T01:42:44.760Z,5.10
2023-02-14T01:45:19.635Z,5.78
2023-02-14T01:47:51.749Z,3.92
2023-02-14T01:50:25.023Z,3.95
2023-02-14T01:52:58.709Z,3.45
2023-02-14T01:55:33.473Z,4.95
2023-02-14T01:58:05.691Z,5.65
2023-02-14T02:00:52.064Z,6.27
2023-02-14T02:03:21.235Z,6.13
2023-02-14T02:05:52.730Z,6.45
2023-02-14T02:08:22.514Z,4.75
2023-02-14T02:10:50.734Z,5.38
2023-02-14T02:13:22.814Z,8.07
2023-02-14T02:16:12.226Z,5.80
2023-02-14T02:18:52.757Z,4.82
2023-02-14T02:21:57.492Z,4.78
2023-02-14T02:24:35.883Z,5.82
2023-02-14T02:27:22.403Z,3.90
2023-02-14T02:30:30.287Z,4.70
2023-02-14T02:33:50.921Z,6.68
2023-02-14T02:36:43.489Z,7.28
2023-02-14T02:39:23.118Z,3.60
2023-02-14T02:42:04.413Z,7.85
2023-02-14T02:44:44.261Z,7.60
2023-02-14T02:47:19.839Z,5.40
2023-02-14T02:50:14.904Z,5.40
2023-02-14T02:53:06.419Z,3.65
2023-02-14T02:56:03.453Z,5.00
2023-02-14T02:58:37.865Z,6.13
2023-02-14T03:01:11.427Z,7.05
2023-02-14T03:04:00.132Z,7.07
2023-02-14T03:06:28.292Z,3.80
2023-02-14T03:08:57.912Z,6.82
2023-02-14T03:11:26.970Z,5.57
2023-02-14T03:14:15.059Z,5.05
2023-02-14T03:16:51.609Z,5.38
2023-02-14T03:20:05.955Z,4.88
2023-02-14T03:22:50.653Z,7.35
2023-02-14T03:25:41.171Z,4.53
2023-02-14T03:28:16.098Z,3.78
2023-02-14T03:30:56.749Z,4.78
2023-02-14T03:33:32.974Z,3.47
2023-02-14T03:36:07.553Z,4.35
2023-02-14T03:38:43.255Z,7.05
2023-02-14T03:41:16.346Z,8.95
2023-02-14T03:43:49.583Z,5.70
2023-02-14T03:46:21.349Z,6.22
2023-02-14T03:48:55.145Z,5.35
2023-02-14T03:51:24.921Z,4.25
2023-02-14T03:53:57.754Z,5.00
2023-02-14T03:56:35.893Z,5.22
2023-02-14T03:59:10.052Z,7.88
2023-02-14T04:01:45.978Z,5.85
2023-02-14T04:04:17.461Z,3.65
2023-02-14T04:06:47.990Z,4.70
2023-02-14T04:09:16.263Z,7.60
2023-02-14T04:11:46.497Z,6.80
2023-02-14T04:14:14.734Z,6.95
2023-02-14T04:16:56.843Z,5.30
2023-02-14T04:19:25.121Z,5.00
2023-02-14T04:21:53.609Z,3.65
2023-02-14T04:24:22.024Z,6.95
2023-02-14T04:27:11.138Z,4.15
2023-02-14T04:29:40.855Z,4.25
2023-02-14T04:32:13.188Z,6.15
2023-02-14T04:34:41.849Z,4.82
2023-02-14T04:37:10.188Z,4.32
2023-02-14T04:39:38.970Z,5.30
2023-02-14T04:42:08.969Z,8.38
2023-02-14T04:44:38.329Z,4.60
2023-02-14T04:47:07.642Z,5.85
2023-02-14T04:49:35.928Z,7.97
2023-02-14T04:52:05.091Z,5.47
2023-02-14T04:54:35.827Z,4.82
2023-02-14T04:57:04.243Z,4.30
2023-02-14T04:59:33.790Z,3.40
2023-02-14T05:02:02.035Z,4.10
2023-02-14T05:04:30.215Z,5.03
2023-02-14T05:06:58.394Z,5.13
2023-02-14T05:09:26.548Z,3.95
2023-02-14T05:11:54.733Z,7.95
2023-02-14T05:14:23.101Z,4.35
2023-02-14T05:16:52.754Z,5.22
2023-02-14T05:19:21.083Z,4.80
2023-02-14T05:21:49.310Z,3.22
2023-02-14T05:24:17.950Z,5.75
2023-02-14T05:26:48.728Z,6.28
2023-02-14T05:29:16.899Z,10.25
2023-02-14T05:31:45.991Z,7.63
2023-02-14T05:34:15.542Z,7.10
2023-02-14T05:36:45.992Z,5.30
2023-02-14T05:39:14.699Z,4.18
2023-02-14T05:41:42.922Z,6.47
2023-02-14T05:44:11.069Z,5.35
2023-02-14T05:46:39.295Z,4.50
2023-02-14T05:49:07.441Z,3.88
2023-02-14T05:51:37.159Z,6.72
2023-02-14T05:54:05.472Z,8.35
2023-02-14T05:56:33.705Z,4.15
2023-02-14T05:59:01.858Z,4.20
2023-02-14T06:01:32.264Z,6.45
2023-02-14T06:04:00.586Z,7.20
2023-02-14T06:06:28.787Z,6.47
2023-02-14T06:09:00.265Z,3.90
2023-02-14T06:11:28.437Z,5.00
2023-02-14T06:13:56.969Z,7.03
2023-02-14T06:16:25.291Z,4.20
2023-02-14T06:18:53.611Z,4.65
2023-02-14T06:21:21.765Z,5.90
2023-02-14T06:23:49.944Z,3.55
2023-02-14T06:26:19.454Z,4.50
2023-02-14T06:28:47.637Z,4.47
2023-02-14T06:31:19.474Z,6.57
2023-02-14T06:33:47.727Z,7.28
2023-02-14T06:36:15.975Z,5.32
2023-02-14T06:38:44.331Z,4.45
2023-02-14T06:41:14.954Z,3.22
2023-02-14T06:43:45.281Z,5.05
2023-02-14T06:46:13.448Z,7.30
2023-02-14T06:48:41.937Z,4.43
2023-02-14T06:51:10.320Z,6.13
2023-02-14T06:53:38.747Z,4.70
2023-02-14T06:56:07.463Z,6.10
2023-02-14T06:58:35.936Z,5.72
2023-02-14T07:01:05.810Z,6.53
2023-02-14T07:03:34.058Z,7.00
2023-02-14T07:06:02.273Z,4.57
2023-02-14T07:08:30.581Z,6.88
2023-02-14T07:10:59.619Z,7.70
2023-02-14T07:13:28.193Z,4.15
2023-02-14T07:15:56.623Z,3.47
2023-02-14T07:18:28.358Z,4.00
2023-02-14T07:20:56.652Z,9.10
2023-02-14T07:23:24.826Z,3.92
2023-02-14T07:25:52.990Z,6.97
2023-02-14T07:28:21.188Z,5.78
2023-02-14T07:30:49.564Z,3.97
2023-02-14T07:33:20.382Z,7.50
2023-02-14T07:35:49.920Z,6.60
2023-02-14T07:38:18.118Z,5.45
2023-02-14T07:40:46.272Z,6.13
2023-02-14T07:43:14.444Z,6.75
2023-02-14T07:45:42.614Z,6.90
2023-02-14T07:48:10.785Z,5.50
2023-02-14T07:50:39.061Z,5.40
2023-02-14T07:53:09.287Z,6.10
2023-02-14T07:55:37.469Z,4.55
2023-02-14T07:58:05.754Z,4.03
2023-02-14T08:00:34.055Z,8.02
2023-02-14T08:03:02.272Z,7.43
2023-02-14T08:05:30.481Z,4.88
2023-02-14T08:07:58.755Z,4.72
2023-02-14T08:10:28.375Z,6.85
2023-02-14T08:13:01.322Z,6.65
2023-02-14T08:15:51.860Z,4.97
2023-02-14T08:18:21.087Z,6.63
2023-02-14T08:20:49.961Z,6.38
2023-02-14T08:23:19.319Z,6.22
2023-02-14T08:25:50.219Z,5.47
2023-02-14T08:28:18.904Z,6.55
2023-02-14T08:30:47.446Z,4.05
2023-02-14T08:33:15.761Z,5.10
2023-02-14T08:35:44.077Z,5.15
2023-02-14T08:38:12.431Z,5.75
2023-02-14T08:40:41.703Z,5.18
2023-02-14T08:43:11.640Z,5.45
2023-02-14T08:45:40.367Z,7.00
2023-02-14T08:48:10.513Z,5.72
2023-02-14T08:50:39.716Z,5.35
2023-02-14T08:53:09.680Z,6.90
2023-02-14T08:55:38.706Z,7.28
2023-02-14T08:58:08.175Z,5.55
2023-02-14T09:00:37.907Z,3.72
2023-02-14T09:03:06.194Z,9.88
2023-02-14T09:05:35.193Z,10.43
2023-02-14T09:08:04.067Z,7.47
2023-02-14T09:10:32.292Z,4.68
2023-02-14T09:13:00.534Z,5.95
2023-02-14T09:15:28.692Z,7.47
2023-02-14T09:17:58.395Z,7.63
2023-02-14T09:20:26.772Z,8.85
2023-02-14T09:22:57.100Z,8.52
2023-02-14T09:25:25.355Z,7.05
2023-02-14T09:27:53.517Z,6.65
2023-02-14T09:30:23.925Z,4.50
2023-02-14T09:32:53.598Z,4.60
2023-02-14T09:35:40.719Z,6.65
2023-02-14T09:38:20.224Z,8.30
2023-02-14T09:40:50.596Z,6.75
2023-02-14T09:43:23.828Z,5.53
2023-02-14T09:45:57.633Z,5.80
2023-02-14T09:48:29.975Z,6.05
2023-02-14T09:51:05.863Z,6.40
2023-02-14T09:53:36.556Z,9.60
2023-02-14T09:56:11.652Z,7.63
2023-02-14T09:58:47.532Z,8.55
2023-02-14T10:01:23.350Z,6.30
2023-02-14T10:04:19.036Z,7.32
2023-02-14T10:06:51.891Z,9.88
2023-02-14T10:09:37.396Z,4.97
2023-02-14T10:12:09.321Z,4.57
2023-02-14T10:14:40.923Z,8.52
2023-02-14T10:17:15.710Z,8.00
2023-02-14T10:19:49.910Z,6.43
2023-02-14T10:22:22.408Z,7.63
2023-02-14T10:24:54.124Z,7.32
2023-02-14T10:27:31.393Z,4.25
2023-02-14T10:29:59.673Z,5.25
2023-02-14T10:32:33.217Z,6.80
2023-02-14T10:35:06.989Z,6.45
2023-02-14T10:37:52.045Z,7.17
2023-02-14T10:40:36.172Z,8.20
2023-02-14T10:43:16.346Z,4.03
2023-02-14T10:45:52.803Z,5.90
2023-02-14T10:48:30.003Z,8.38
2023-02-14T10:51:05.782Z,5.60
2023-02-14T10:53:43.825Z,7.40
2023-02-14T10:56:20.057Z,7.13
2023-02-14T10:58:51.480Z,9.70
2023-02-14T11:01:23.572Z,7.00
2023-02-14T11:03:55.902Z,5.50
2023-02-14T11:06:24.123Z,7.93
2023-02-14T11:08:56.231Z,5.80
2023-02-14T11:11:32.577Z,6.30
2023-02-14T11:14:00.896Z,6.50
2023-02-14T11:16:33.565Z,8.98
2023-02-14T11:19:11.574Z,5.93
2023-02-14T11:21:44.980Z,4.60
2023-02-14T11:24:28.497Z,5.83
2023-02-14T11:27:00.024Z,5.20
2023-02-14T11:29:31.710Z,5.73
2023-02-14T11:32:09.310Z,5.50
2023-02-14T11:34:41.067Z,5.43
2023-02-14T11:37:26.929Z,8.70
2023-02-14T11:39:59.098Z,7.32
2023-02-14T11:42:41.427Z,5.68
2023-02-14T11:45:29.664Z,7.50
2023-02-14T11:48:24.988Z,4.93
2023-02-14T11:51:03.581Z,9.57
2023-02-14T11:53:45.026Z,8.90
2023-02-14T11:56:15.474Z,6.70
2023-02-14T11:58:51.826Z,4.33
2023-02-14T12:01:25.633Z,10.37
2023-02-14T12:03:55.887Z,7.27
2023-02-14T12:06:26.239Z,9.33
2023-02-14T12:09:12.782Z,7.23
2023-02-14T12:11:42.443Z,10.27
2023-02-14T12:14:22.925Z,9.03
2023-02-14T12:16:57.132Z,7.83
2023-02-14T12:19:35.722Z,6.23
2023-02-14T12:22:06.600Z,8.43
2023-02-14T12:24:37.653Z,8.40
2023-02-14T12:27:23.925Z,9.37
2023-02-14T12:29:55.599Z,5.77
2023-02-14T12:32:26.519Z,4.70
2023-02-14T12:35:01.760Z,5.33
2023-02-14T12:37:41.757Z,10.87
2023-02-14T12:40:18.445Z,5.97
2023-02-14T12:43:31.297Z,7.07
2023-02-14T12:46:17.542Z,6.53
2023-02-14T12:49:04.984Z,6.13
2023-02-14T12:51:41.621Z,6.33
2023-02-14T12:54:27.734Z,7.10
2023-02-14T12:57:03.596Z,9.93
2023-02-14T12:59:43.746Z,7.73
2023-02-14T13:02:53.203Z,5.83
2023-02-14T13:05:26.010Z,7.40
2023-02-14T13:08:09.992Z,4.80
2023-02-14T13:10:53.956Z,8.63
2023-02-14T13:13:34.286Z,6.03
2023-02-14T13:16:13.995Z,8.97
2023-02-14T13:18:51.252Z,8.50
2023-02-14T13:21:24.209Z,6.77
2023-02-14T13:23:59.009Z,7.33
2023-02-14T13:26:33.748Z,3.73
2023-02-14T13:29:05.815Z,9.00
2023-02-14T13:31:36.630Z,4.80
2023-02-14T13:34:09.850Z,11.40
2023-02-14T13:36:38.653Z,8.33
2023-02-14T13:39:08.012Z,8.67
2023-02-14T13:41:41.816Z,8.47
2023-02-14T13:44:10.064Z,6.27
2023-02-14T13:46:54.981Z,7.10
2023-02-14T13:49:31.810Z,7.87
2023-02-14T13:52:03.799Z,9.33
2023-02-14T13:54:35.790Z,7.67
2023-02-14T13:57:24.380Z,5.60
2023-02-14T14:00:25.451Z,4.70
2023-02-14T14:02:55.642Z,8.50
2023-02-14T14:05:50.319Z,7.57
2023-02-14T14:08:40.522Z,7.60
2023-02-14T14:11:14.797Z,8.23
2023-02-14T14:14:03.133Z,7.87
2023-02-14T14:16:35.084Z,8.60
2023-02-14T14:19:25.863Z,6.50
2023-02-14T14:22:04.035Z,6.50
2023-02-14T14:24:34.433Z,6.00
2023-02-14T14:27:05.180Z,8.87
2023-02-14T14:29:36.571Z,7.87
2023-02-14T14:32:09.811Z,5.77
2023-02-14T14:34:48.856Z,6.70
2023-02-14T14:37:19.188Z,8.33
2023-02-14T14:39:53.005Z,8.30
2023-02-14T14:42:22.913Z,6.53
2023-02-14T14:44:54.405Z,10.10
2023-02-14T14:47:25.607Z,7.57
2023-02-14T14:50:01.228Z,10.90
2023-02-14T14:52:35.271Z,11.07
2023-02-14T14:55:05.511Z,8.23
2023-02-14T14:57:41.623Z,8.47
2023-02-14T15:00:20.864Z,6.50
2023-02-14T15:03:15.311Z,6.33
2023-02-14T15:05:46.448Z,6.50
2023-02-14T15:08:16.926Z,7.90
2023-02-14T15:10:48.366Z,7.93
2023-02-14T15:13:34.275Z,6.97
2023-02-14T15:16:03.917Z,6.00
2023-02-14T15:18:32.405Z,7.10
2023-02-14T15:21:03.473Z,7.60
2023-02-14T15:23:33.070Z,8.90
2023-02-14T15:26:01.992Z,6.70
2023-02-14T15:28:31.909Z,6.37
2023-02-14T15:31:02.967Z,8.20
2023-02-14T15:33:33.145Z,5.17
2023-02-14T15:36:05.456Z,9.10
2023-02-14T15:38:36.384Z,6.70
2023-02-14T15:41:04.791Z,8.30
2023-02-14T15:43:36.291Z,7.87
2023-02-14T15:46:17.404Z,5.57
2023-02-14T15:48:47.024Z,11.90
2023-02-14T15:51:22.885Z,8.47
2023-02-14T15:53:54.525Z,7.17
2023-02-14T15:56:26.176Z,4.83
2023-02-14T15:59:00.944Z,6.03
2023-02-14T16:01:29.986Z,5.83
2023-02-14T16:04:01.380Z,6.70
2023-02-14T16:06:37.543Z,8.70
2023-02-14T16:09:08.147Z,9.70
2023-02-14T16:11:38.187Z,10.83
2023-02-14T16:14:32.266Z,8.60
2023-02-14T16:17:03.620Z,7.00
2023-02-14T16:19:37.239Z,10.43
2023-02-14T16:22:10.724Z,9.67
2023-02-14T16:24:39.042Z,6.18
2023-02-14T16:27:13.345Z,5.03
2023-02-14T16:29:41.597Z,5.40
2023-02-14T16:32:18.620Z,10.15
2023-02-14T16:34:48.411Z,8.03
2023-02-14T16:37:23.829Z,13.85
2023-02-14T16:39:57.732Z,8.77
2023-02-14T16:42:26.358Z,9.67
2023-02-14T16:44:54.850Z,11.20
2023-02-14T16:47:23.313Z,8.05
2023-02-14T16:49:53.156Z,8.00
2023-02-14T16:52:26.593Z,12.23
2023-02-14T16:54:54.886Z,8.48
2023-02-14T16:57:29.150Z,9.82
2023-02-14T16:59:58.087Z,9.20
2023-02-14T17:02:29.452Z,11.55
2023-02-14T17:04:57.772Z,10.35
2023-02-14T17:07:30.376Z,7.18
2023-02-14T17:10:03.076Z,7.33
2023-02-14T17:12:33.502Z,6.57
2023-02-14T17:15:06.026Z,7.07
2023-02-14T17:17:35.344Z,13.20
2023-02-14T17:20:04.921Z,14.45
2023-02-14T17:22:35.034Z,10.75
2023-02-14T17:25:06.599Z,7.32
2023-02-14T17:27:35.291Z,16.00
2023-02-14T17:30:03.656Z,11.15
2023-02-14T17:32:31.886Z,7.50
2023-02-14T17:35:03.458Z,9.70
2023-02-14T17:37:32.322Z,8.15
2023-02-14T17:40:05.898Z,8.70
2023-02-14T17:42:34.897Z,12.77
2023-02-14T17:45:07.299Z,14.40
2023-02-14T17:47:36.035Z,9.45
2023-02-14T17:50:08.518Z,8.52
2023-02-14T17:52:36.689Z,10.57
2023-02-14T17:55:07.118Z,9.57
2023-02-14T17:57:35.626Z,12.07
2023-02-14T18:00:06.016Z,12.50
2023-02-14T18:02:42.156Z,10.57
2023-02-14T18:05:10.439Z,8.10
2023-02-14T18:07:38.743Z,12.55
2023-02-14T18:10:09.126Z,9.60
2023-02-14T18:12:37.650Z,10.95
2023-02-14T18:15:06.568Z,12.00
2023-02-14T18:17:34.744Z,15.35
2023-02-14T18:20:03.340Z,9.48
2023-02-14T18:22:32.968Z,11.02
2023-02-14T18:25:01.126Z,10.27
2023-02-14T18:27:32.089Z,10.32
2023-02-14T18:30:00.466Z,11.85
2023-02-14T18:32:28.797Z,5.20
2023-02-14T18:34:56.989Z,8.13
2023-02-14T18:37:25.233Z,9.38
2023-02-14T18:39:53.373Z,11.07
2023-02-14T18:42:21.793Z,14.13
2023-02-14T18:44:51.328Z,8.68
2023-02-14T18:47:19.671Z,8.50
2023-02-14T18:49:47.980Z,11.77
2023-02-14T18:52:16.151Z,12.73
2023-02-14T18:54:44.322Z,10.15
2023-02-14T18:57:12.539Z,6.78
2023-02-14T18:59:41.161Z,11.82
2023-02-14T19:02:11.290Z,15.50
2023-02-14T19:04:39.735Z,13.40
2023-02-14T19:07:07.910Z,9.65
2023-02-14T19:09:39.794Z,6.32
2023-02-14T19:12:08.564Z,12.30
2023-02-14T19:14:37.233Z,9.00
2023-02-14T19:17:06.201Z,11.15
2023-02-14T19:19:36.208Z,7.47
2023-02-14T19:22:04.396Z,12.00
2023-02-14T19:24:32.659Z,7.95
2023-02-14T19:27:00.909Z,9.23
2023-02-14T19:29:29.070Z,11.93
2023-02-14T19:31:57.902Z,12.20
2023-02-14T19:34:29.495Z,9.63
2023-02-14T19:37:03.280Z,11.07
2023-02-14T19:39:32.652Z,12.38
2023-02-14T19:42:01.655Z,8.45
2023-02-14T19:44:31.252Z,10.63
2023-02-14T19:47:04.115Z,9.07
2023-02-14T19:49:36.320Z,9.48
2023-02-14T19:52:09.470Z,9.07
2023-02-14T19:54:42.630Z,10.25
2023-02-14T19:57:14.066Z,10.77
2023-02-14T19:59:42.298Z,9.98
2023-02-14T20:02:15.210Z,9.52
2023-02-14T20:04:43.725Z,10.70
2023-02-14T20:07:13.423Z,8.27
2023-02-14T20:09:41.723Z,11.07
2023-02-14T20:12:10.971Z,13.38
2023-02-14T20:14:50.933Z,15.32
2023-02-14T20:17:20.398Z,11.18
2023-02-14T20:19:48.974Z,11.98
2023-02-14T20:22:20.339Z,13.13
2023-02-14T20:24:48.597Z,11.05
2023-02-14T20:27:17.188Z,14.98
2023-02-14T20:29:45.486Z,12.38
2023-02-14T20:32:22.961Z,9.98
2023-02-14T20:34:52.053Z,10.30
2023-02-14T20:37:21.609Z,11.15
2023-02-14T20:39:49.848Z,12.70
2023-02-14T20:42:18.017Z,11.75
2023-02-14T20:44:46.409Z,12.82
2023-02-14T20:47:14.567Z,9.02
2023-02-14T20:49:44.801Z,16.95
2023-02-14T20:52:13.696Z,13.40
2023-02-14T20:54:43.209Z,13.98
2023-02-14T20:57:18.903Z,8.38
2023-02-14T20:59:47.098Z,8.48
2023-02-14T21:02:15.970Z,10.63
2023-02-14T21:04:44.150Z,9.52
2023-02-14T21:07:12.418Z,13.85
2023-02-14T21:09:42.031Z,11.20
2023-02-14T21:12:10.411Z,11.80
2023-02-14T21:14:38.703Z,11.40
2023-02-14T21:17:06.860Z,11.10
2023-02-14T21:19:35.050Z,10.18
2023-02-14T21:22:03.216Z,10.43
2023-02-14T21:24:31.426Z,13.00
2023-02-14T21:27:02.818Z,14.25
2023-02-14T21:29:34.005Z,13.85
2023-02-14T21:32:03.728Z,7.95
2023-02-14T21:34:32.135Z,10.85
2023-02-14T21:37:00.358Z,11.00
2023-02-14T21:39:31.295Z,15.00
2023-02-14T21:42:01.027Z,8.80
2023-02-14T21:44:46.928Z,8.32
2023-02-14T21:47:15.168Z,12.45
2023-02-14T21:50:00.793Z,10.65
2023-02-14T21:52:30.274Z,11.95
2023-02-14T21:54:58.637Z,10.57
2023-02-14T21:57:28.250Z,9.13
2023-02-14T21:59:56.451Z,17.02
2023-02-14T22:02:24.787Z,19.65
2023-02-14T22:04:53.013Z,13.98
2023-02-14T22:07:24.412Z,13.68
2023-02-14T22:09:52.652Z,15.00
2023-02-14T22:12:20.949Z,17.83
2023-02-14T22:14:50.575Z,13.18
2023-02-14T22:17:18.806Z,11.02
2023-02-14T22:19:48.261Z,14.63
2023-02-14T22:22:16.469Z,10.57
2023-02-14T22:24:44.681Z,11.82
2023-02-14T22:27:13.026Z,10.75
2023-02-14T22:29:41.242Z,11.02
2023-02-14T22:32:11.022Z,12.00
2023-02-14T22:34:39.296Z,14.15
2023-02-14T22:37:07.639Z,15.57
2023-02-14T22:39:35.895Z,11.05
2023-02-14T22:42:06.869Z,11.65
2023-02-14T22:44:35.143Z,11.75
2023-02-14T22:47:03.364Z,11.73
2023-02-14T22:49:33.022Z,10.88
2023-02-14T22:52:01.254Z,10.85
2023-02-14T22:54:29.549Z,15.43
2023-02-14T22:56:57.741Z,10.52
2023-02-14T22:59:28.317Z,16.38
2023-02-14T23:01:56.606Z,12.43
2023-02-14T23:04:25.828Z,13.25
2023-02-14T23:06:58.310Z,9.48
2023-02-14T23:09:26.795Z,12.40
2023-02-14T23:11:55.225Z,8.45
2023-02-14T23:14:40.981Z,16.73
2023-02-14T23:17:33.762Z,15.82
2023-02-14T23:20:19.609Z,9.93
2023-02-14T23:22:49.248Z,13.85
2023-02-14T23:25:17.575Z,10.80
2023-02-14T23:27:48.342Z,16.50
2023-02-14T23:30:18.797Z,12.23
2023-02-14T23:32:48.244Z,11.35
2023-02-14T23:35:16.742Z,17.45
2023-02-14T23:37:44.964Z,13.70
2023-02-14T23:40:14.854Z,13.45
2023-02-14T23:42:45.432Z,12.95
2023-02-14T23:45:45.847Z,11.88
2023-02-14T23:48:14.073Z,13.07
2023-02-14T23:50:42.380Z,12.80
2023-02-14T23:53:10.675Z,13.07
2023-02-14T23:55:40.361Z,17.52
2023-02-14T23:58:08.658Z,14.48
